createdAt,value
2023-12-09T00:01:43.378Z,31.47
2023-12-09T00:04:12.112Z,32.40
2023-12-09T00:06:47.551Z,28.60
2023-12-09T00:09:19.431Z,29.03
2023-12-09T00:11:48.080Z,26.77
2023-12-09T00:14:16.606Z,24.63
2023-12-09T00:16:45.290Z,22.73
2023-12-09T00:19:14.447Z,30.37
2023-12-09T00:21:43.096Z,36.43
2023-12-09T00:24:11.713Z,28.50
2023-12-09T00:26:41.535Z,30.67
2023-12-09T00:29:10.093Z,29.70
2023-12-09T00:31:38.505Z,22.73
2023-12-09T00:34:08.022Z,28.50
2023-12-09T00:36:36.924Z,23.07
2023-12-09T00:39:06.360Z,31.10
2023-12-09T00:41:34.897Z,36.70
2023-12-09T00:44:04.582Z,24.87
2023-12-09T00:46:33.136Z,32.40
2023-12-09T00:49:02.326Z,26.83
2023-12-09T00:51:31.051Z,28.40
2023-12-09T00:53:59.595Z,28.43
2023-12-09T00:56:34.310Z,29.17
2023-12-09T00:59:06.117Z,31.30
2023-12-09T01:01:35.744Z,30.13
2023-12-09T01:04:04.983Z,26.80
2023-12-09T01:06:33.929Z,35.40
2023-12-09T01:09:02.578Z,32.30
2023-12-09T01:11:31.108Z,31.43
2023-12-09T01:13:59.646Z,34.23
2023-12-09T01:16:29.484Z,27.03
2023-12-09T01:18:57.933Z,25.40
2023-12-09T01:21:26.439Z,23.57
2023-12-09T01:23:54.961Z,28.33
2023-12-09T01:26:23.470Z,35.50
2023-12-09T01:28:52.248Z,23.83
2023-12-09T01:31:20.665Z,26.33
2023-12-09T01:33:50.578Z,28.47
2023-12-09T01:36:19.286Z,32.03
2023-12-09T01:38:47.732Z,26.50
2023-12-09T01:41:16.145Z,26.70
2023-12-09T01:43:49.632Z,22.17
2023-12-09T01:46:19.684Z,24.87
2023-12-09T01:48:50.056Z,24.47
2023-12-09T01:51:19.788Z,33.00
2023-12-09T01:53:48.707Z,27.80
2023-12-09T01:56:18.973Z,26.90
2023-12-09T01:58:47.493Z,25.23
2023-12-09T02:01:16.221Z,30.00
2023-12-09T02:03:44.946Z,19.73
2023-12-09T02:06:14.685Z,22.63
2023-12-09T02:08:43.341Z,25.60
2023-12-09T02:11:19.824Z,24.07
2023-12-09T02:13:57.849Z,24.47
2023-12-09T02:16:31.742Z,25.57
2023-12-09T02:19:02.759Z,24.17
2023-12-09T02:21:32.711Z,17.83
2023-12-09T02:24:02.416Z,19.57
2023-12-09T02:26:31.095Z,25.40
2023-12-09T02:29:05.141Z,30.43
2023-12-09T02:31:36.805Z,36.57
2023-12-09T02:34:06.912Z,29.03
2023-12-09T02:36:37.021Z,26.93
2023-12-09T02:39:08.618Z,23.07
2023-12-09T02:41:37.678Z,24.73
2023-12-09T02:44:07.544Z,23.53
2023-12-09T02:46:36.030Z,25.87
2023-12-09T02:49:05.112Z,27.43
2023-12-09T02:51:33.846Z,21.77
2023-12-09T02:54:02.409Z,29.60
2023-12-09T02:56:32.101Z,23.97
2023-12-09T02:59:00.546Z,26.13
2023-12-09T03:01:29.132Z,20.03
2023-12-09T03:03:57.776Z,25.03
2023-12-09T03:06:26.267Z,22.17
2023-12-09T03:08:54.762Z,19.93
2023-12-09T03:11:31.445Z,26.17
2023-12-09T03:13:59.906Z,28.17
2023-12-09T03:16:28.315Z,19.73
2023-12-09T03:18:57.293Z,25.23
2023-12-09T03:21:25.843Z,21.00
2023-12-09T03:23:54.380Z,24.60
2023-12-09T03:26:22.963Z,26.80
2023-12-09T03:28:52.945Z,31.00
2023-12-09T03:31:22.456Z,22.47
2023-12-09T03:33:51.004Z,20.70
2023-12-09T03:36:19.488Z,22.73
2023-12-09T03:38:48.044Z,30.37
2023-12-09T03:41:16.563Z,22.13
2023-12-09T03:43:45.150Z,21.50
2023-12-09T03:46:16.688Z,18.20
2023-12-09T03:48:45.249Z,26.00
2023-12-09T03:51:13.812Z,20.67
2023-12-09T03:53:43.619Z,24.03
2023-12-09T03:56:12.917Z,24.20
2023-12-09T03:58:41.507Z,25.23
2023-12-09T04:01:10.374Z,33.97
2023-12-09T04:03:40.363Z,27.47
2023-12-09T04:06:09.227Z,25.10
2023-12-09T04:08:38.224Z,28.37
2023-12-09T04:11:07.280Z,24.73
2023-12-09T04:13:35.793Z,25.90
2023-12-09T04:16:03.844Z,24.57
2023-12-09T04:18:32.523Z,27.10
2023-12-09T04:21:02.409Z,20.50
2023-12-09T04:23:31.126Z,28.80
2023-12-09T04:25:59.518Z,25.30
2023-12-09T04:28:27.934Z,23.67
2023-12-09T04:30:56.414Z,25.80
2023-12-09T04:33:24.774Z,19.03
2023-12-09T04:35:53.394Z,26.77
2023-12-09T04:38:23.131Z,23.83
2023-12-09T04:40:51.525Z,22.17
2023-12-09T04:43:20.224Z,26.90
2023-12-09T04:45:48.639Z,22.23
2023-12-09T04:48:17.934Z,29.17
2023-12-09T04:50:46.891Z,20.97
2023-12-09T04:53:15.420Z,23.30
2023-12-09T04:55:45.428Z,17.73
2023-12-09T04:58:14.020Z,24.93
2023-12-09T05:00:42.720Z,23.07
2023-12-09T05:03:11.329Z,29.83
2023-12-09T05:05:39.880Z,23.60
2023-12-09T05:08:08.335Z,26.50
2023-12-09T05:10:36.753Z,27.70
2023-12-09T05:13:06.409Z,25.90
2023-12-09T05:15:35.050Z,25.37
2023-12-09T05:18:03.827Z,27.27
2023-12-09T05:20:32.639Z,18.63
2023-12-09T05:23:01.136Z,26.50
2023-12-09T05:25:29.620Z,32.53
2023-12-09T05:27:57.918Z,27.83
2023-12-09T05:30:28.061Z,28.20
2023-12-09T05:32:55.811Z,25.50
2023-12-09T05:35:24.634Z,30.73
2023-12-09T05:37:53.229Z,25.40
2023-12-09T05:40:21.694Z,29.17
2023-12-09T05:42:50.225Z,29.73
2023-12-09T05:45:19.109Z,24.33
2023-12-09T05:47:48.924Z,27.40
2023-12-09T05:50:17.373Z,27.37
2023-12-09T05:52:45.911Z,27.50
2023-12-09T05:55:17.881Z,21.93
2023-12-09T05:57:46.562Z,22.97
2023-12-09T06:00:15.527Z,19.90
2023-12-09T06:02:44.008Z,24.47
2023-12-09T06:05:13.826Z,25.40
2023-12-09T06:07:42.327Z,19.77
2023-12-09T06:10:13.809Z,27.20
2023-12-09T06:12:43.950Z,23.83
2023-12-09T06:15:13.362Z,31.37
2023-12-09T06:17:41.836Z,25.03
2023-12-09T06:20:11.156Z,24.67
2023-12-09T06:22:40.925Z,22.67
2023-12-09T06:25:10.521Z,23.33
2023-12-09T06:27:39.331Z,22.00
2023-12-09T06:30:11.029Z,23.60
2023-12-09T06:32:39.714Z,24.07
2023-12-09T06:35:08.518Z,19.00
2023-12-09T06:37:37.255Z,19.33
2023-12-09T06:40:08.260Z,19.97
2023-12-09T06:42:38.402Z,21.27
2023-12-09T06:45:07.842Z,24.23
2023-12-09T06:47:36.723Z,17.23
2023-12-09T06:50:07.581Z,24.40
2023-12-09T06:52:36.211Z,24.87
2023-12-09T06:55:04.894Z,23.73
2023-12-09T06:57:34.617Z,19.30
2023-12-09T07:00:06.411Z,24.73
2023-12-09T07:02:44.627Z,21.83
2023-12-09T07:05:21.877Z,23.70
2023-12-09T07:07:52.101Z,22.67
2023-12-09T07:10:21.192Z,23.27
2023-12-09T07:12:50.974Z,22.73
2023-12-09T07:15:19.575Z,28.00
2023-12-09T07:17:48.207Z,21.10
2023-12-09T07:20:16.810Z,25.30
2023-12-09T07:22:45.506Z,18.33
2023-12-09T07:25:14.174Z,26.17
2023-12-09T07:27:42.694Z,24.87
2023-12-09T07:30:18.294Z,19.13
2023-12-09T07:32:46.741Z,20.53
2023-12-09T07:35:18.266Z,22.17
2023-12-09T07:37:48.305Z,22.58
2023-12-09T07:40:17.369Z,18.70
2023-12-09T07:42:46.085Z,22.47
2023-12-09T07:45:15.903Z,25.37
2023-12-09T07:47:44.263Z,22.80
2023-12-09T07:50:13.371Z,16.37
2023-12-09T07:52:42.160Z,17.40
2023-12-09T07:55:11.696Z,20.73
2023-12-09T07:57:40.312Z,23.80
2023-12-09T08:00:09.827Z,23.58
2023-12-09T08:02:40.042Z,26.00
2023-12-09T08:05:08.776Z,21.80
2023-12-09T08:07:37.366Z,16.40
2023-12-09T08:10:14.448Z,20.58
2023-12-09T08:12:50.367Z,17.30
2023-12-09T08:15:26.468Z,15.20
2023-12-09T08:17:59.094Z,18.67
2023-12-09T08:20:32.413Z,22.98
2023-12-09T08:23:03.969Z,19.07
2023-12-09T08:25:37.234Z,19.40
2023-12-09T08:28:09.786Z,11.13
2023-12-09T08:30:43.395Z,18.67
2023-12-09T08:33:16.379Z,18.43
2023-12-09T08:35:49.376Z,17.40
2023-12-09T08:38:20.841Z,19.73
2023-12-09T08:40:54.160Z,11.20
2023-12-09T08:43:26.185Z,12.98
2023-12-09T08:45:54.821Z,16.10
2023-12-09T08:48:25.700Z,13.53
2023-12-09T08:50:57.285Z,13.13
2023-12-09T08:53:28.830Z,15.37
2023-12-09T08:56:00.393Z,14.00
2023-12-09T08:58:31.937Z,11.67
2023-12-09T09:01:03.671Z,13.77
2023-12-09T09:03:36.493Z,13.60
2023-12-09T09:06:08.322Z,17.45
2023-12-09T09:08:39.774Z,15.65
2023-12-09T09:11:13.520Z,13.05
2023-12-09T09:13:44.943Z,15.65
2023-12-09T09:16:18.274Z,11.23
2023-12-09T09:18:54.084Z,11.25
2023-12-09T09:21:30.326Z,9.23
2023-12-09T09:24:05.107Z,9.95
2023-12-09T09:26:41.185Z,10.18
2023-12-09T09:29:17.615Z,10.20
2023-12-09T09:31:53.566Z,8.90
2023-12-09T09:34:29.372Z,8.80
2023-12-09T09:37:02.439Z,10.23
2023-12-09T09:39:36.264Z,7.32
2023-12-09T09:42:19.393Z,7.03
2023-12-09T09:45:06.523Z,10.07
2023-12-09T09:47:41.405Z,9.32
2023-12-09T09:50:16.887Z,3.55
2023-12-09T09:52:51.811Z,11.02
2023-12-09T09:55:24.305Z,7.25
2023-12-09T09:57:54.493Z,5.30
2023-12-09T10:00:25.214Z,6.30
2023-12-09T10:02:57.293Z,5.05
2023-12-09T10:05:29.214Z,5.22
2023-12-09T10:07:59.070Z,6.88
2023-12-09T10:10:29.234Z,4.07
2023-12-09T10:12:59.122Z,5.13
2023-12-09T10:15:30.645Z,8.80
2023-12-09T10:18:04.578Z,7.70
2023-12-09T10:20:40.147Z,6.38
2023-12-09T10:23:10.975Z,3.55
2023-12-09T10:25:42.418Z,3.25
2023-12-09T10:28:13.028Z,5.25
2023-12-09T10:30:48.133Z,8.05
2023-12-09T10:33:21.580Z,7.05
2023-12-09T10:35:58.465Z,4.18
2023-12-09T10:38:32.984Z,3.42
2023-12-09T10:41:10.735Z,3.40
2023-12-09T10:43:45.300Z,2.72
2023-12-09T10:46:21.480Z,5.50
2023-12-09T10:48:56.172Z,7.95
2023-12-09T10:51:33.463Z,2.45
2023-12-09T10:54:08.211Z,2.85
2023-12-09T10:56:42.859Z,4.30
2023-12-09T10:59:17.052Z,3.88
2023-12-09T11:01:52.031Z,2.00
2023-12-09T11:04:25.090Z,5.35
2023-12-09T11:07:05.249Z,3.03
2023-12-09T11:09:41.421Z,3.80
2023-12-09T11:12:10.499Z,2.58
2023-12-09T11:14:39.830Z,3.10
2023-12-09T11:17:34.820Z,2.97
2023-12-09T11:20:11.091Z,4.45
2023-12-09T11:22:42.357Z,3.15
2023-12-09T11:25:13.365Z,2.60
2023-12-09T11:27:41.804Z,3.50
2023-12-09T11:30:32.877Z,2.83
2023-12-09T11:33:03.435Z,3.08
2023-12-09T11:35:34.120Z,2.08
2023-12-09T11:38:07.670Z,4.10
2023-12-09T11:40:38.537Z,2.85
2023-12-09T11:43:09.511Z,4.45
2023-12-09T11:45:39.966Z,2.33
2023-12-09T11:48:10.701Z,3.28
2023-12-09T11:50:48.049Z,4.30
2023-12-09T11:53:23.692Z,1.83
2023-12-09T11:55:59.946Z,1.52
2023-12-09T11:58:32.969Z,1.50
2023-12-09T12:01:07.860Z,2.08
2023-12-09T12:03:40.924Z,2.65
2023-12-09T12:06:15.785Z,2.13
2023-12-09T12:08:52.269Z,2.83
2023-12-09T12:11:25.834Z,1.85
2023-12-09T12:13:56.714Z,3.05
2023-12-09T12:16:28.380Z,2.35
2023-12-09T12:18:58.537Z,2.92
2023-12-09T12:21:30.175Z,2.25
2023-12-09T12:24:06.973Z,2.15
2023-12-09T12:26:38.573Z,1.02
2023-12-09T12:29:09.960Z,0.98
2023-12-09T12:31:43.117Z,1.50
2023-12-09T12:34:21.813Z,2.22
2023-12-09T12:36:55.037Z,0.60
2023-12-09T12:39:28.120Z,0.63
2023-12-09T12:42:02.281Z,1.02
2023-12-09T12:44:33.792Z,0.98
2023-12-09T12:47:03.949Z,0.57
2023-12-09T12:49:38.712Z,1.10
2023-12-09T12:52:12.216Z,0.90
2023-12-09T12:54:46.420Z,2.53
2023-12-09T12:57:20.776Z,0.35
2023-12-09T12:59:53.851Z,0.50
2023-12-09T13:02:26.976Z,0.90
2023-12-09T13:04:58.762Z,0.77
2023-12-09T13:07:30.397Z,1.33
2023-12-09T13:10:05.008Z,2.78
2023-12-09T13:12:37.153Z,0.80
2023-12-09T13:15:09.851Z,0.52
2023-12-09T13:17:41.948Z,0.65
2023-12-09T13:20:12.969Z,1.02
2023-12-09T13:22:43.139Z,0.55
2023-12-09T13:25:17.795Z,0.60
2023-12-09T13:27:48.676Z,1.83
2023-12-09T13:30:18.999Z,5.05
2023-12-09T13:32:49.067Z,2.25
2023-12-09T13:35:19.870Z,1.05
2023-12-09T13:37:49.942Z,0.80
2023-12-09T13:40:21.458Z,0.73
2023-12-09T13:42:51.545Z,0.95
2023-12-09T13:45:22.792Z,0.80
2023-12-09T13:47:53.075Z,3.83
2023-12-09T13:50:27.679Z,1.45
2023-12-09T13:53:01.248Z,0.90
2023-12-09T13:55:36.015Z,1.20
2023-12-09T13:58:09.086Z,1.70
2023-12-09T14:00:42.313Z,2.83
2023-12-09T14:03:14.133Z,2.08
2023-12-09T14:05:47.440Z,0.70
2023-12-09T14:08:19.668Z,1.33
2023-12-09T14:10:52.460Z,1.23
2023-12-09T14:13:22.924Z,1.10
2023-12-09T14:15:54.560Z,1.33
2023-12-09T14:18:24.719Z,1.80
2023-12-09T14:20:53.821Z,1.20
2023-12-09T14:23:22.398Z,1.30
2023-12-09T14:25:52.500Z,1.48
2023-12-09T14:28:21.053Z,1.30
2023-12-09T14:30:53.343Z,1.02
2023-12-09T14:33:25.186Z,1.45
2023-12-09T14:35:57.102Z,1.25
2023-12-09T14:38:27.373Z,0.90
2023-12-09T14:40:58.983Z,0.85
2023-12-09T14:43:29.322Z,1.20
2023-12-09T14:45:59.455Z,1.20
2023-12-09T14:48:32.632Z,9.18
2023-12-09T14:51:03.207Z,6.90
2023-12-09T14:53:34.322Z,5.93
2023-12-09T14:56:05.670Z,5.65
2023-12-09T14:58:39.575Z,9.13
2023-12-09T15:01:11.361Z,13.98
2023-12-09T15:03:45.818Z,12.45
2023-12-09T15:06:17.301Z,14.13
2023-12-09T15:08:53.424Z,18.95
2023-12-09T15:11:30.773Z,25.02
2023-12-09T15:14:07.041Z,29.85
2023-12-09T15:16:41.528Z,33.40
2023-12-09T15:19:17.825Z,30.50
2023-12-09T15:21:49.422Z,31.08
2023-12-09T15:24:26.220Z,16.73
2023-12-09T15:26:59.077Z,28.55
2023-12-09T15:29:34.063Z,30.70
2023-12-09T15:32:05.572Z,29.88
2023-12-09T15:34:38.682Z,28.42
2023-12-09T15:37:10.251Z,24.52
2023-12-09T15:39:43.366Z,29.83
2023-12-09T15:42:16.331Z,30.77
2023-12-09T15:44:47.189Z,32.83
2023-12-09T15:47:17.395Z,36.00
2023-12-09T15:49:47.450Z,29.88
2023-12-09T15:52:17.562Z,30.20
2023-12-09T15:54:47.812Z,29.03
2023-12-09T15:57:17.693Z,30.70
2023-12-09T15:59:49.559Z,27.05
2023-12-09T16:02:18.042Z,25.58
2023-12-09T16:04:46.645Z,24.38
2023-12-09T16:07:15.572Z,26.83
2023-12-09T16:09:51.781Z,29.25
2023-12-09T16:12:22.716Z,32.70
2023-12-09T16:14:54.857Z,23.20
2023-12-09T16:17:23.637Z,27.25
2023-12-09T16:19:53.842Z,29.87
2023-12-09T16:22:23.909Z,28.57
2023-12-09T16:24:55.636Z,29.25
2023-12-09T16:27:27.744Z,26.88
2023-12-09T16:30:00.808Z,34.72
2023-12-09T16:32:32.764Z,32.22
2023-12-09T16:35:06.145Z,37.75
2023-12-09T16:37:38.848Z,31.85
2023-12-09T16:40:16.201Z,41.30
2023-12-09T16:42:47.589Z,50.70
2023-12-09T16:45:19.235Z,42.67
2023-12-09T16:47:49.471Z,54.63
2023-12-09T16:50:21.281Z,54.43
2023-12-09T16:52:51.406Z,50.67
2023-12-09T16:55:23.019Z,53.07
2023-12-09T16:57:54.142Z,43.93
2023-12-09T17:00:25.956Z,43.07
2023-12-09T17:02:56.118Z,36.93
2023-12-09T17:05:27.790Z,46.60
2023-12-09T17:07:58.058Z,35.77
2023-12-09T17:10:30.243Z,38.63
2023-12-09T17:13:00.566Z,39.87
2023-12-09T17:15:29.442Z,42.33
2023-12-09T17:17:59.170Z,31.33
2023-12-09T17:20:32.558Z,33.87
2023-12-09T17:23:05.509Z,34.10
2023-12-09T17:25:38.629Z,29.50
2023-12-09T17:28:12.857Z,36.93
2023-12-09T17:30:46.004Z,33.03
2023-12-09T17:33:19.316Z,32.93
2023-12-09T17:35:52.383Z,36.30
2023-12-09T17:38:25.387Z,44.97
2023-12-09T17:40:59.031Z,37.03
2023-12-09T17:43:33.280Z,29.40
2023-12-09T17:46:06.361Z,37.13
2023-12-09T17:48:39.085Z,35.50
2023-12-09T17:51:12.280Z,32.67
2023-12-09T17:53:43.888Z,27.20
2023-12-09T17:56:17.111Z,35.63
2023-12-09T17:58:55.610Z,37.23
2023-12-09T18:01:30.832Z,39.83
2023-12-09T18:04:01.364Z,50.87
2023-12-09T18:06:32.029Z,45.30
2023-12-09T18:09:00.662Z,46.33
2023-12-09T18:11:29.489Z,35.73
2023-12-09T18:13:59.334Z,36.80
2023-12-09T18:16:27.139Z,46.47
2023-12-09T18:18:58.612Z,40.53
2023-12-09T18:21:30.176Z,45.03
2023-12-09T18:23:58.975Z,46.97
2023-12-09T18:26:27.953Z,38.70
2023-12-09T18:28:56.549Z,56.40
2023-12-09T18:31:26.279Z,37.70
2023-12-09T18:33:54.920Z,49.33
2023-12-09T18:36:23.544Z,52.73
2023-12-09T18:38:56.813Z,49.93
2023-12-09T18:41:28.317Z,51.37
2023-12-09T18:44:01.376Z,37.93
2023-12-09T18:46:34.382Z,40.20
2023-12-09T18:49:07.558Z,42.60
2023-12-09T18:51:39.181Z,51.23
2023-12-09T18:54:10.836Z,46.03
2023-12-09T18:56:40.923Z,37.47
2023-12-09T18:59:17.584Z,49.63
2023-12-09T19:02:01.604Z,47.70
2023-12-09T19:04:42.894Z,42.60
2023-12-09T19:07:16.255Z,45.57
2023-12-09T19:09:52.505Z,43.47
2023-12-09T19:12:25.886Z,45.43
2023-12-09T19:15:00.812Z,45.80
2023-12-09T19:17:35.331Z,49.23
2023-12-09T19:20:08.364Z,46.27
2023-12-09T19:22:39.856Z,49.13
2023-12-09T19:25:11.654Z,50.23
2023-12-09T19:27:43.520Z,40.80
2023-12-09T19:30:17.411Z,47.97
2023-12-09T19:32:51.710Z,54.50
2023-12-09T19:35:22.158Z,52.67
2023-12-09T19:37:51.122Z,38.23
2023-12-09T19:40:19.746Z,49.57
2023-12-09T19:42:48.223Z,47.30
2023-12-09T19:45:16.922Z,42.53
2023-12-09T19:47:45.508Z,50.47
2023-12-09T19:50:19.705Z,48.30
2023-12-09T19:52:50.795Z,51.70
2023-12-09T19:55:19.330Z,50.70
2023-12-09T19:57:48.190Z,50.20
2023-12-09T20:00:16.963Z,43.53
2023-12-09T20:02:47.937Z,46.80
2023-12-09T20:05:19.303Z,45.60
2023-12-09T20:07:47.987Z,44.60
2023-12-09T20:10:19.809Z,43.23
2023-12-09T20:12:49.764Z,47.23
2023-12-09T20:15:18.488Z,38.17
2023-12-09T20:17:47.150Z,47.03
2023-12-09T20:20:15.789Z,59.20
2023-12-09T20:22:45.535Z,46.60
2023-12-09T20:25:14.781Z,53.97
2023-12-09T20:27:43.448Z,53.90
2023-12-09T20:30:14.315Z,48.43
2023-12-09T20:32:43.354Z,40.27
2023-12-09T20:35:12.187Z,42.10
2023-12-09T20:37:40.634Z,39.27
2023-12-09T20:40:11.358Z,41.90
2023-12-09T20:42:41.120Z,40.23
2023-12-09T20:45:10.077Z,48.23
2023-12-09T20:47:40.642Z,39.57
2023-12-09T20:50:14.925Z,37.47
2023-12-09T20:52:45.069Z,45.53
2023-12-09T20:55:17.466Z,38.70
2023-12-09T20:57:47.824Z,38.97
2023-12-09T21:00:18.752Z,46.67
2023-12-09T21:02:48.943Z,48.10
2023-12-09T21:05:19.529Z,50.40
2023-12-09T21:07:48.456Z,45.00
2023-12-09T21:10:21.679Z,45.93
2023-12-09T21:12:52.966Z,47.93
2023-12-09T21:15:21.996Z,43.60
2023-12-09T21:17:50.501Z,46.73
2023-12-09T21:20:19.623Z,38.77
2023-12-09T21:22:48.427Z,41.50
2023-12-09T21:25:18.367Z,44.40
2023-12-09T21:27:46.899Z,46.03
2023-12-09T21:30:19.096Z,40.33
2023-12-09T21:32:50.703Z,48.57
2023-12-09T21:35:20.837Z,50.13
2023-12-09T21:37:49.318Z,44.80
2023-12-09T21:40:20.897Z,55.47
2023-12-09T21:42:51.059Z,48.97
2023-12-09T21:45:21.950Z,55.97
2023-12-09T21:47:55.475Z,48.67
2023-12-09T21:50:29.413Z,45.10
2023-12-09T21:53:01.001Z,52.60
2023-12-09T21:55:35.603Z,44.50
2023-12-09T21:58:06.823Z,33.67
2023-12-09T22:00:37.624Z,43.50
2023-12-09T22:03:06.226Z,38.40
2023-12-09T22:05:35.531Z,49.67
2023-12-09T22:08:04.128Z,51.73
2023-12-09T22:10:37.947Z,37.50
2023-12-09T22:13:11.113Z,48.13
2023-12-09T22:15:42.433Z,47.73
2023-12-09T22:18:14.180Z,40.93
2023-12-09T22:20:42.761Z,43.83
2023-12-09T22:23:11.199Z,34.83
2023-12-09T22:25:40.915Z,48.43
2023-12-09T22:28:09.439Z,42.20
2023-12-09T22:30:38.710Z,36.37
2023-12-09T22:33:07.508Z,46.27
2023-12-09T22:35:36.193Z,47.17
2023-12-09T22:38:04.918Z,35.50
2023-12-09T22:40:35.004Z,35.63
2023-12-09T22:43:04.945Z,33.50
2023-12-09T22:45:34.023Z,41.03
2023-12-09T22:48:03.618Z,34.70
2023-12-09T22:50:35.509Z,27.43
2023-12-09T22:53:04.060Z,39.13
2023-12-09T22:55:34.005Z,28.43
2023-12-09T22:58:02.624Z,29.73
2023-12-09T23:00:34.360Z,40.50
2023-12-09T23:03:04.312Z,38.80
2023-12-09T23:05:33.774Z,46.73
2023-12-09T23:08:02.262Z,39.30
2023-12-09T23:10:33.874Z,47.87
2023-12-09T23:13:03.984Z,53.20
2023-12-09T23:15:36.821Z,40.80
2023-12-09T23:18:07.449Z,35.33
2023-12-09T23:20:37.613Z,41.43
2023-12-09T23:23:06.125Z,42.33
2023-12-09T23:25:34.674Z,44.40
2023-12-09T23:28:04.374Z,26.27
2023-12-09T23:30:36.549Z,36.13
2023-12-09T23:33:05.876Z,31.73
2023-12-09T23:35:34.753Z,27.47
2023-12-09T23:38:03.557Z,32.27
2023-12-09T23:40:32.385Z,36.07
2023-12-09T23:43:00.966Z,34.70
2023-12-09T23:45:29.546Z,39.17
2023-12-09T23:47:59.528Z,30.77
2023-12-09T23:50:28.117Z,39.37
2023-12-09T23:52:56.697Z,33.67
2023-12-09T23:55:25.201Z,31.27
2023-12-09T23:57:53.798Z,32.40
